CYDF

Deer Lake Airport

Deer Lake, Canada
TAF CYDF 221338Z 2214/2302 VRB03KT P6SM -SHSN OVC025 TEMPO 2214/2220 2SM -SHSN OVC020 PROB40 2214/2220 3/4SM -SHSN VV008 FM222000 27008KT 2SM -SHSN BKN020 OVC060 BECMG 2222/2224 24012KT RMK NXT FCST BY 222000Z
Issued Valid From Valid To
Jan-22 @ 13:38 UTC
(3 hours ago)
Jan-22 @ 14:00 UTC
(3 hours ago)
Jan-23 @ 02:00 UTC
(in 9 hours)
Jan-22 @ 14:00 to Jan-22 @ 20:00
TAF CYDF 221338Z 2214/2302 VRB03KT P6SM -SHSN OVC025
Wind Visibility Clouds Conditions
Variable at 3 knots Greater than 6 miles
  • Overcast at 2,500' AGL
  • Light Snow
Probable  (Probability 40%) Jan-22 @ 14:00 to Jan-22 @ 20:00
PROB40 2214/2220 3/4SM -SHSN VV008
Visibility Clouds Conditions
3/4 miles
  • Vertical visibility at 800' AGL
  • Light Snow
Temporary Jan-22 @ 14:00 to Jan-22 @ 20:00
TEMPO 2214/2220 2SM -SHSN OVC020
Visibility Clouds Conditions
2 miles
  • Overcast at 2,000' AGL
  • Light Snow
From Jan-22 @ 20:00 to Jan-22 @ 22:00
FM222000 27008KT 2SM -SHSN BKN020 OVC060
Wind Visibility Clouds Conditions
270° at 8 knots 2 miles
  • Broken at 2,000' AGL
  • Overcast at 6,000' AGL
  • Light Snow
Becoming Jan-22 @ 22:00 to Jan-23 @ 02:00
BECMG 2222/2224 24012KT RMK NXT FCST BY 222000Z
Wind Visibility Clouds Conditions
240° at 12 knots 2 miles
  • Broken at 2,000' AGL
  • Overcast at 6,000' AGL
  • Light Snow
TAF CYDF 221338Z 2214/2302 VRB03KT P6SM -SHSN OVC025 TEMPO 2214/2220 2SM -SHSN OVC020 PROB40 2214/2220 3/4SM -SHSN VV008 FM222000 27008KT 2SM -SHSN BKN020 OVC060 BECMG 2222/2224 24012KT RMK NXT FCST BY 222000Z
Issued Jan-22 @ 13:38 UTC
(3 hours ago)
Valid From Jan-22 @ 14:00 UTC
(3 hours ago)
Valid To Jan-23 @ 02:00 UTC
(in 9 hours)
Jan-22 @ 14:00 - Jan-22 @ 20:00
Wind Visibility
Variable at 3 knots Greater than 6 miles
Clouds
  • Overcast at 2,500' AGL
Conditions
  • Light Snow
Probability 40% Probable Jan-22 @ 14:00 - Jan-22 @ 20:00
Clouds
  • Vertical visibility at 800' AGL
Conditions
  • Light Snow
Temporary Jan-22 @ 14:00 - Jan-22 @ 20:00
Clouds
  • Overcast at 2,000' AGL
Conditions
  • Light Snow
From Jan-22 @ 20:00 - Jan-22 @ 22:00
Wind Visibility
270° at 8 knots 2 miles
Clouds
  • Broken at 2,000' AGL
  • Overcast at 6,000' AGL
Conditions
  • Light Snow
Becoming Jan-22 @ 22:00 - Jan-23 @ 02:00
Wind Visibility
240° at 12 knots 2 miles
Clouds
  • Broken at 2,000' AGL
  • Overcast at 6,000' AGL
Conditions
  • Light Snow